sensor_id;sensor_type;location;lat;lon;timestamp;temperature;humidity
2825;DHT22;1420;51.324;12.344;2023-08-08T00:01:02;13.90;99.90
2825;DHT22;1420;51.324;12.344;2023-08-08T00:03:29;13.80;99.90
2825;DHT22;1420;51.324;12.344;2023-08-08T00:05:56;14.00;99.90
2825;DHT22;1420;51.324;12.344;2023-08-08T00:08:23;13.80;99.90
2825;DHT22;1420;51.324;12.344;2023-08-08T00:10:51;13.90;99.90
2825;DHT22;1420;51.324;12.344;2023-08-08T00:13:18;13.90;99.90
2825;DHT22;1420;51.324;12.344;2023-08-08T00:15:46;14.10;99.90
2825;DHT22;1420;51.324;12.344;2023-08-08T00:18:14;14.20;99.90
2825;DHT22;1420;51.324;12.344;2023-08-08T00:20:42;14.10;99.90
2825;DHT22;1420;51.324;12.344;2023-08-08T00:23:10;13.80;99.90
2825;DHT22;1420;51.324;12.344;2023-08-08T00:25:38;13.50;99.90
2825;DHT22;1420;51.324;12.344;2023-08-08T00:28:05;13.40;99.90
2825;DHT22;1420;51.324;12.344;2023-08-08T00:30:32;14.10;99.90
2825;DHT22;1420;51.324;12.344;2023-08-08T00:32:59;14.40;99.90
2825;DHT22;1420;51.324;12.344;2023-08-08T00:35:27;14.00;99.90
2825;DHT22;1420;51.324;12.344;2023-08-08T00:37:54;14.10;99.90
2825;DHT22;1420;51.324;12.344;2023-08-08T00:40:22;13.80;99.90
2825;DHT22;1420;51.324;12.344;2023-08-08T00:42:50;13.90;99.90
2825;DHT22;1420;51.324;12.344;2023-08-08T00:45:17;13.90;99.90
2825;DHT22;1420;51.324;12.344;2023-08-08T00:47:44;13.70;99.90
2825;DHT22;1420;51.324;12.344;2023-08-08T00:50:11;14.00;99.90
2825;DHT22;1420;51.324;12.344;2023-08-08T00:52:39;13.80;99.90
2825;DHT22;1420;51.324;12.344;2023-08-08T00:55:06;13.70;99.90
2825;DHT22;1420;51.324;12.344;2023-08-08T00:57:34;13.70;99.90
2825;DHT22;1420;51.324;12.344;2023-08-08T01:00:03;13.70;99.90
2825;DHT22;1420;51.324;12.344;2023-08-08T01:02:30;13.60;99.90
2825;DHT22;1420;51.324;12.344;2023-08-08T01:04:58;13.50;99.90
2825;DHT22;1420;51.324;12.344;2023-08-08T01:07:52;13.60;99.90
2825;DHT22;1420;51.324;12.344;2023-08-08T01:10:25;13.50;99.90
2825;DHT22;1420;51.324;12.344;2023-08-08T01:12:53;14.00;99.90
2825;DHT22;1420;51.324;12.344;2023-08-08T01:15:19;14.00;99.90
2825;DHT22;1420;51.324;12.344;2023-08-08T01:17:47;13.50;99.90
2825;DHT22;1420;51.324;12.344;2023-08-08T01:20:15;13.40;99.90
2825;DHT22;1420;51.324;12.344;2023-08-08T01:23:39;13.60;99.90
2825;DHT22;1420;51.324;12.344;2023-08-08T01:25:45;13.60;99.90
2825;DHT22;1420;51.324;12.344;2023-08-08T01:28:13;14.00;99.90
2825;DHT22;1420;51.324;12.344;2023-08-08T01:30:41;13.80;99.90
2825;DHT22;1420;51.324;12.344;2023-08-08T01:33:09;13.50;99.90
2825;DHT22;1420;51.324;12.344;2023-08-08T01:35:37;13.80;99.90
2825;DHT22;1420;51.324;12.344;2023-08-08T01:38:11;13.80;99.90
2825;DHT22;1420;51.324;12.344;2023-08-08T01:40:38;13.50;99.90
2825;DHT22;1420;51.324;12.344;2023-08-08T01:43:06;13.30;99.90
2825;DHT22;1420;51.324;12.344;2023-08-08T01:45:35;13.40;99.90
2825;DHT22;1420;51.324;12.344;2023-08-08T01:48:10;13.60;99.90
2825;DHT22;1420;51.324;12.344;2023-08-08T01:50:37;13.50;99.90
2825;DHT22;1420;51.324;12.344;2023-08-08T01:53:04;13.50;99.90
2825;DHT22;1420;51.324;12.344;2023-08-08T01:55:32;13.20;99.90
2825;DHT22;1420;51.324;12.344;2023-08-08T01:57:59;13.30;99.90
2825;DHT22;1420;51.324;12.344;2023-08-08T02:00:26;13.60;99.90
2825;DHT22;1420;51.324;12.344;2023-08-08T02:02:53;13.40;99.90
2825;DHT22;1420;51.324;12.344;2023-08-08T02:05:21;13.60;99.90
2825;DHT22;1420;51.324;12.344;2023-08-08T02:07:48;13.70;99.90
2825;DHT22;1420;51.324;12.344;2023-08-08T02:10:15;13.50;99.90
2825;DHT22;1420;51.324;12.344;2023-08-08T02:12:42;13.50;99.90
2825;DHT22;1420;51.324;12.344;2023-08-08T02:15:09;13.30;99.90
2825;DHT22;1420;51.324;12.344;2023-08-08T02:17:37;13.80;99.90
2825;DHT22;1420;51.324;12.344;2023-08-08T02:20:05;13.70;99.90
2825;DHT22;1420;51.324;12.344;2023-08-08T02:22:32;13.70;99.90
2825;DHT22;1420;51.324;12.344;2023-08-08T02:24:59;13.40;99.90
2825;DHT22;1420;51.324;12.344;2023-08-08T02:27:26;13.20;99.90
2825;DHT22;1420;51.324;12.344;2023-08-08T02:29:53;13.30;99.90
2825;DHT22;1420;51.324;12.344;2023-08-08T02:32:21;13.90;99.90
2825;DHT22;1420;51.324;12.344;2023-08-08T02:34:49;13.50;99.90
2825;DHT22;1420;51.324;12.344;2023-08-08T02:37:17;13.30;99.90
2825;DHT22;1420;51.324;12.344;2023-08-08T02:39:45;13.30;99.90
2825;DHT22;1420;51.324;12.344;2023-08-08T02:42:12;13.20;99.90
2825;DHT22;1420;51.324;12.344;2023-08-08T02:44:39;13.40;99.90
2825;DHT22;1420;51.324;12.344;2023-08-08T02:47:06;13.00;99.90
2825;DHT22;1420;51.324;12.344;2023-08-08T02:49:33;13.10;99.90
2825;DHT22;1420;51.324;12.344;2023-08-08T02:52:01;13.20;99.90
2825;DHT22;1420;51.324;12.344;2023-08-08T02:54:28;13.00;99.90
2825;DHT22;1420;51.324;12.344;2023-08-08T02:56:55;13.50;99.90
2825;DHT22;1420;51.324;12.344;2023-08-08T02:59:22;13.70;99.90
2825;DHT22;1420;51.324;12.344;2023-08-08T03:01:50;13.70;99.90
2825;DHT22;1420;51.324;12.344;2023-08-08T03:04:17;13.70;99.90
2825;DHT22;1420;51.324;12.344;2023-08-08T03:06:45;13.80;99.90
2825;DHT22;1420;51.324;12.344;2023-08-08T03:09:12;13.50;99.90
2825;DHT22;1420;51.324;12.344;2023-08-08T03:11:39;13.90;99.90
2825;DHT22;1420;51.324;12.344;2023-08-08T03:14:07;13.50;99.90
2825;DHT22;1420;51.324;12.344;2023-08-08T03:16:35;13.20;99.90
2825;DHT22;1420;51.324;12.344;2023-08-08T03:19:03;13.30;99.90
2825;DHT22;1420;51.324;12.344;2023-08-08T03:21:31;13.10;99.90
2825;DHT22;1420;51.324;12.344;2023-08-08T03:23:59;13.10;99.90
2825;DHT22;1420;51.324;12.344;2023-08-08T03:26:27;13.20;99.90
2825;DHT22;1420;51.324;12.344;2023-08-08T03:28:54;13.10;99.90
2825;DHT22;1420;51.324;12.344;2023-08-08T03:31:21;13.20;99.90
2825;DHT22;1420;51.324;12.344;2023-08-08T03:33:48;13.10;99.90
2825;DHT22;1420;51.324;12.344;2023-08-08T03:36:16;13.50;99.90
2825;DHT22;1420;51.324;12.344;2023-08-08T03:38:43;13.80;99.90
2825;DHT22;1420;51.324;12.344;2023-08-08T03:41:11;13.50;99.90
2825;DHT22;1420;51.324;12.344;2023-08-08T03:43:38;13.70;99.90
2825;DHT22;1420;51.324;12.344;2023-08-08T03:46:05;13.50;99.90
2825;DHT22;1420;51.324;12.344;2023-08-08T03:48:33;13.20;99.90
2825;DHT22;1420;51.324;12.344;2023-08-08T03:51:00;13.30;99.90
2825;DHT22;1420;51.324;12.344;2023-08-08T03:53:27;13.40;99.90
2825;DHT22;1420;51.324;12.344;2023-08-08T03:55:55;13.10;99.90
2825;DHT22;1420;51.324;12.344;2023-08-08T03:58:22;13.10;99.90
2825;DHT22;1420;51.324;12.344;2023-08-08T04:00:49;13.00;99.90
2825;DHT22;1420;51.324;12.344;2023-08-08T04:03:17;13.20;99.90
2825;DHT22;1420;51.324;12.344;2023-08-08T04:05:46;13.10;99.90
2825;DHT22;1420;51.324;12.344;2023-08-08T04:08:14;13.00;99.90
2825;DHT22;1420;51.324;12.344;2023-08-08T04:10:41;13.40;99.90
2825;DHT22;1420;51.324;12.344;2023-08-08T04:13:08;13.30;99.90
2825;DHT22;1420;51.324;12.344;2023-08-08T04:15:36;13.30;99.90
2825;DHT22;1420;51.324;12.344;2023-08-08T04:18:04;13.70;99.90
2825;DHT22;1420;51.324;12.344;2023-08-08T04:20:32;13.60;99.90
2825;DHT22;1420;51.324;12.344;2023-08-08T04:22:59;13.90;99.90
2825;DHT22;1420;51.324;12.344;2023-08-08T04:25:27;13.90;99.90
2825;DHT22;1420;51.324;12.344;2023-08-08T04:27:54;14.10;99.90
2825;DHT22;1420;51.324;12.344;2023-08-08T04:30:21;14.40;99.90
2825;DHT22;1420;51.324;12.344;2023-08-08T04:32:48;14.30;99.90
2825;DHT22;1420;51.324;12.344;2023-08-08T04:35:15;13.90;99.90
2825;DHT22;1420;51.324;12.344;2023-08-08T04:37:42;13.90;99.90
2825;DHT22;1420;51.324;12.344;2023-08-08T04:40:10;14.20;99.90
2825;DHT22;1420;51.324;12.344;2023-08-08T04:42:37;14.20;99.90
2825;DHT22;1420;51.324;12.344;2023-08-08T04:45:05;14.40;99.90
2825;DHT22;1420;51.324;12.344;2023-08-08T04:47:32;14.30;99.90
2825;DHT22;1420;51.324;12.344;2023-08-08T04:50:00;14.40;99.90
2825;DHT22;1420;51.324;12.344;2023-08-08T04:52:27;14.40;99.90
2825;DHT22;1420;51.324;12.344;2023-08-08T04:54:55;14.20;99.90
2825;DHT22;1420;51.324;12.344;2023-08-08T04:57:22;14.30;99.90
2825;DHT22;1420;51.324;12.344;2023-08-08T04:59:49;14.40;99.90
2825;DHT22;1420;51.324;12.344;2023-08-08T05:02:16;14.10;99.90
2825;DHT22;1420;51.324;12.344;2023-08-08T05:04:44;14.30;99.90
2825;DHT22;1420;51.324;12.344;2023-08-08T05:07:11;14.60;99.90
2825;DHT22;1420;51.324;12.344;2023-08-08T05:09:38;14.40;99.90
2825;DHT22;1420;51.324;12.344;2023-08-08T05:12:05;14.20;99.90
2825;DHT22;1420;51.324;12.344;2023-08-08T05:14:33;14.40;99.90
2825;DHT22;1420;51.324;12.344;2023-08-08T05:17:01;14.10;99.90
2825;DHT22;1420;51.324;12.344;2023-08-08T05:19:27;14.00;99.90
2825;DHT22;1420;51.324;12.344;2023-08-08T05:21:54;13.90;99.90
2825;DHT22;1420;51.324;12.344;2023-08-08T05:24:21;14.20;99.90
2825;DHT22;1420;51.324;12.344;2023-08-08T05:26:49;14.10;99.90
2825;DHT22;1420;51.324;12.344;2023-08-08T05:29:16;14.20;99.90
2825;DHT22;1420;51.324;12.344;2023-08-08T05:31:43;14.20;99.90
2825;DHT22;1420;51.324;12.344;2023-08-08T05:34:10;14.00;99.90
2825;DHT22;1420;51.324;12.344;2023-08-08T05:36:38;14.10;99.90
2825;DHT22;1420;51.324;12.344;2023-08-08T05:39:07;14.00;99.90
2825;DHT22;1420;51.324;12.344;2023-08-08T05:41:34;13.80;99.90
2825;DHT22;1420;51.324;12.344;2023-08-08T05:44:01;13.80;99.90
2825;DHT22;1420;51.324;12.344;2023-08-08T05:46:28;13.90;99.90
2825;DHT22;1420;51.324;12.344;2023-08-08T05:48:55;13.80;99.90
2825;DHT22;1420;51.324;12.344;2023-08-08T05:51:22;13.90;99.90
2825;DHT22;1420;51.324;12.344;2023-08-08T05:53:50;14.00;99.90
2825;DHT22;1420;51.324;12.344;2023-08-08T05:56:18;14.00;99.90
2825;DHT22;1420;51.324;12.344;2023-08-08T05:58:45;14.00;99.90
2825;DHT22;1420;51.324;12.344;2023-08-08T06:01:12;13.90;99.90
2825;DHT22;1420;51.324;12.344;2023-08-08T06:03:39;13.90;99.90
2825;DHT22;1420;51.324;12.344;2023-08-08T06:06:10;14.00;99.90
2825;DHT22;1420;51.324;12.344;2023-08-08T06:08:37;14.00;99.90
2825;DHT22;1420;51.324;12.344;2023-08-08T06:11:05;14.20;99.90
2825;DHT22;1420;51.324;12.344;2023-08-08T06:13:33;14.20;99.90
2825;DHT22;1420;51.324;12.344;2023-08-08T06:16:01;14.30;99.90
2825;DHT22;1420;51.324;12.344;2023-08-08T06:18:29;14.40;99.90
2825;DHT22;1420;51.324;12.344;2023-08-08T06:20:56;14.40;99.90
2825;DHT22;1420;51.324;12.344;2023-08-08T06:23:23;14.40;99.90
2825;DHT22;1420;51.324;12.344;2023-08-08T06:25:50;14.40;99.90
2825;DHT22;1420;51.324;12.344;2023-08-08T06:28:18;14.50;99.90
2825;DHT22;1420;51.324;12.344;2023-08-08T06:30:45;14.40;99.90
2825;DHT22;1420;51.324;12.344;2023-08-08T06:33:12;14.40;99.90
2825;DHT22;1420;51.324;12.344;2023-08-08T06:35:41;15.20;99.90
2825;DHT22;1420;51.324;12.344;2023-08-08T06:38:07;15.20;99.90
2825;DHT22;1420;51.324;12.344;2023-08-08T06:40:35;15.30;99.90
2825;DHT22;1420;51.324;12.344;2023-08-08T06:43:02;15.10;99.90
2825;DHT22;1420;51.324;12.344;2023-08-08T06:45:29;14.80;99.90
2825;DHT22;1420;51.324;12.344;2023-08-08T06:47:57;14.60;99.90
2825;DHT22;1420;51.324;12.344;2023-08-08T06:50:24;14.60;99.90
2825;DHT22;1420;51.324;12.344;2023-08-08T06:52:52;14.70;99.90
2825;DHT22;1420;51.324;12.344;2023-08-08T06:55:19;14.80;99.90
2825;DHT22;1420;51.324;12.344;2023-08-08T06:57:46;14.90;99.90
2825;DHT22;1420;51.324;12.344;2023-08-08T07:00:14;15.20;99.90
2825;DHT22;1420;51.324;12.344;2023-08-08T07:02:42;15.40;99.90
2825;DHT22;1420;51.324;12.344;2023-08-08T07:05:09;15.40;99.90
2825;DHT22;1420;51.324;12.344;2023-08-08T07:07:36;15.70;99.90
2825;DHT22;1420;51.324;12.344;2023-08-08T07:10:04;15.70;99.90
2825;DHT22;1420;51.324;12.344;2023-08-08T07:12:31;15.70;99.90
2825;DHT22;1420;51.324;12.344;2023-08-08T07:14:58;15.80;99.90
2825;DHT22;1420;51.324;12.344;2023-08-08T07:17:32;16.30;99.90
2825;DHT22;1420;51.324;12.344;2023-08-08T07:20:00;16.30;99.90
2825;DHT22;1420;51.324;12.344;2023-08-08T07:22:28;16.20;99.90
2825;DHT22;1420;51.324;12.344;2023-08-08T07:24:55;16.10;99.90
2825;DHT22;1420;51.324;12.344;2023-08-08T07:27:22;16.00;99.90
2825;DHT22;1420;51.324;12.344;2023-08-08T07:29:49;15.80;99.90
2825;DHT22;1420;51.324;12.344;2023-08-08T07:32:17;15.60;99.90
2825;DHT22;1420;51.324;12.344;2023-08-08T07:34:45;15.50;99.90
2825;DHT22;1420;51.324;12.344;2023-08-08T07:37:14;15.30;99.90
2825;DHT22;1420;51.324;12.344;2023-08-08T07:39:40;15.20;99.90
2825;DHT22;1420;51.324;12.344;2023-08-08T07:42:08;15.00;99.90
2825;DHT22;1420;51.324;12.344;2023-08-08T07:44:35;15.10;99.90
2825;DHT22;1420;51.324;12.344;2023-08-08T07:47:02;15.10;99.90
2825;DHT22;1420;51.324;12.344;2023-08-08T07:49:29;15.30;99.90
2825;DHT22;1420;51.324;12.344;2023-08-08T07:51:57;15.20;99.90
2825;DHT22;1420;51.324;12.344;2023-08-08T07:54:24;15.20;99.90
2825;DHT22;1420;51.324;12.344;2023-08-08T07:56:52;15.40;99.90
2825;DHT22;1420;51.324;12.344;2023-08-08T07:59:19;15.30;99.90
2825;DHT22;1420;51.324;12.344;2023-08-08T08:01:47;15.50;99.90
2825;DHT22;1420;51.324;12.344;2023-08-08T08:04:15;15.60;99.90
2825;DHT22;1420;51.324;12.344;2023-08-08T08:06:43;15.70;99.90
2825;DHT22;1420;51.324;12.344;2023-08-08T08:09:10;15.70;99.90
2825;DHT22;1420;51.324;12.344;2023-08-08T08:11:38;15.90;99.90
2825;DHT22;1420;51.324;12.344;2023-08-08T08:14:06;15.80;99.90
2825;DHT22;1420;51.324;12.344;2023-08-08T08:16:34;16.00;99.90
2825;DHT22;1420;51.324;12.344;2023-08-08T08:19:01;15.90;99.90
2825;DHT22;1420;51.324;12.344;2023-08-08T08:21:29;15.80;99.90
2825;DHT22;1420;51.324;12.344;2023-08-08T08:23:56;15.60;99.90
2825;DHT22;1420;51.324;12.344;2023-08-08T08:26:24;15.50;99.90
2825;DHT22;1420;51.324;12.344;2023-08-08T08:28:52;15.40;99.90
2825;DHT22;1420;51.324;12.344;2023-08-08T08:31:19;15.40;99.90
2825;DHT22;1420;51.324;12.344;2023-08-08T08:33:46;15.50;99.90
2825;DHT22;1420;51.324;12.344;2023-08-08T08:36:13;15.40;99.90
2825;DHT22;1420;51.324;12.344;2023-08-08T08:38:41;15.40;99.90
2825;DHT22;1420;51.324;12.344;2023-08-08T08:41:08;15.30;99.90
2825;DHT22;1420;51.324;12.344;2023-08-08T08:43:35;15.20;99.90
2825;DHT22;1420;51.324;12.344;2023-08-08T08:46:02;15.40;99.90
2825;DHT22;1420;51.324;12.344;2023-08-08T08:48:30;15.30;99.90
2825;DHT22;1420;51.324;12.344;2023-08-08T08:50:58;15.40;99.90
2825;DHT22;1420;51.324;12.344;2023-08-08T08:53:26;15.30;99.90
2825;DHT22;1420;51.324;12.344;2023-08-08T08:55:53;15.30;99.90
2825;DHT22;1420;51.324;12.344;2023-08-08T08:58:21;15.30;99.90
2825;DHT22;1420;51.324;12.344;2023-08-08T09:00:48;15.10;99.90
2825;DHT22;1420;51.324;12.344;2023-08-08T09:03:16;15.40;99.90
2825;DHT22;1420;51.324;12.344;2023-08-08T09:05:43;15.30;99.90
2825;DHT22;1420;51.324;12.344;2023-08-08T09:08:11;15.30;99.90
2825;DHT22;1420;51.324;12.344;2023-08-08T09:10:38;15.30;99.90
2825;DHT22;1420;51.324;12.344;2023-08-08T09:13:05;15.40;99.90
2825;DHT22;1420;51.324;12.344;2023-08-08T09:15:33;15.60;99.90
2825;DHT22;1420;51.324;12.344;2023-08-08T09:18:01;15.80;99.90
2825;DHT22;1420;51.324;12.344;2023-08-08T09:20:29;15.90;99.90
2825;DHT22;1420;51.324;12.344;2023-08-08T09:22:56;15.80;99.90
2825;DHT22;1420;51.324;12.344;2023-08-08T09:25:24;16.00;99.90
2825;DHT22;1420;51.324;12.344;2023-08-08T09:27:51;16.10;99.90
2825;DHT22;1420;51.324;12.344;2023-08-08T09:30:18;16.10;99.90
2825;DHT22;1420;51.324;12.344;2023-08-08T09:32:45;16.00;99.90
2825;DHT22;1420;51.324;12.344;2023-08-08T09:35:12;16.00;99.90
2825;DHT22;1420;51.324;12.344;2023-08-08T09:37:39;16.40;99.90
2825;DHT22;1420;51.324;12.344;2023-08-08T09:40:07;16.70;99.90
2825;DHT22;1420;51.324;12.344;2023-08-08T09:42:35;16.80;99.90
2825;DHT22;1420;51.324;12.344;2023-08-08T09:45:01;17.30;99.90
2825;DHT22;1420;51.324;12.344;2023-08-08T09:47:29;17.50;99.90
2825;DHT22;1420;51.324;12.344;2023-08-08T09:50:00;17.80;99.90
2825;DHT22;1420;51.324;12.344;2023-08-08T09:52:27;17.70;99.90
2825;DHT22;1420;51.324;12.344;2023-08-08T09:54:55;18.10;99.90
2825;DHT22;1420;51.324;12.344;2023-08-08T09:57:23;18.40;99.90
2825;DHT22;1420;51.324;12.344;2023-08-08T09:59:51;18.80;99.90
2825;DHT22;1420;51.324;12.344;2023-08-08T10:02:17;18.70;99.90
2825;DHT22;1420;51.324;12.344;2023-08-08T10:04:45;18.50;99.90
2825;DHT22;1420;51.324;12.344;2023-08-08T10:07:14;18.80;99.90
2825;DHT22;1420;51.324;12.344;2023-08-08T10:09:40;18.80;99.90
2825;DHT22;1420;51.324;12.344;2023-08-08T10:12:08;19.00;99.90
2825;DHT22;1420;51.324;12.344;2023-08-08T10:14:35;18.70;99.90
2825;DHT22;1420;51.324;12.344;2023-08-08T10:17:02;18.70;99.90
2825;DHT22;1420;51.324;12.344;2023-08-08T10:19:29;19.20;99.90
2825;DHT22;1420;51.324;12.344;2023-08-08T10:21:59;19.60;99.90
2825;DHT22;1420;51.324;12.344;2023-08-08T10:24:25;19.60;99.90
2825;DHT22;1420;51.324;12.344;2023-08-08T10:26:56;19.00;99.90
2825;DHT22;1420;51.324;12.344;2023-08-08T10:29:21;18.60;99.90
2825;DHT22;1420;51.324;12.344;2023-08-08T10:31:52;18.50;99.90
2825;DHT22;1420;51.324;12.344;2023-08-08T10:34:19;18.40;99.90
2825;DHT22;1420;51.324;12.344;2023-08-08T10:36:50;18.50;99.90
2825;DHT22;1420;51.324;12.344;2023-08-08T10:39:18;18.60;99.90
2825;DHT22;1420;51.324;12.344;2023-08-08T10:41:48;18.60;99.90
2825;DHT22;1420;51.324;12.344;2023-08-08T10:44:22;18.50;99.90
2825;DHT22;1420;51.324;12.344;2023-08-08T10:46:48;18.50;99.90
2825;DHT22;1420;51.324;12.344;2023-08-08T10:49:16;18.50;99.90
2825;DHT22;1420;51.324;12.344;2023-08-08T10:51:43;18.30;99.90
2825;DHT22;1420;51.324;12.344;2023-08-08T10:54:14;17.90;99.90
2825;DHT22;1420;51.324;12.344;2023-08-08T10:56:41;17.80;99.90
2825;DHT22;1420;51.324;12.344;2023-08-08T10:59:13;17.90;99.90
2825;DHT22;1420;51.324;12.344;2023-08-08T11:01:38;18.00;99.90
2825;DHT22;1420;51.324;12.344;2023-08-08T11:04:06;18.40;99.90
2825;DHT22;1420;51.324;12.344;2023-08-08T11:06:37;18.40;99.90
2825;DHT22;1420;51.324;12.344;2023-08-08T11:09:06;18.60;99.90
2825;DHT22;1420;51.324;12.344;2023-08-08T11:11:39;18.80;99.90
2825;DHT22;1420;51.324;12.344;2023-08-08T11:14:13;18.70;99.90
2825;DHT22;1420;51.324;12.344;2023-08-08T11:16:40;18.60;99.90
2825;DHT22;1420;51.324;12.344;2023-08-08T11:19:06;18.40;99.90
2825;DHT22;1420;51.324;12.344;2023-08-08T11:21:37;18.70;99.90
2825;DHT22;1420;51.324;12.344;2023-08-08T11:24:04;19.50;99.90
2825;DHT22;1420;51.324;12.344;2023-08-08T11:26:31;19.50;99.90
2825;DHT22;1420;51.324;12.344;2023-08-08T11:28:59;19.80;99.90
2825;DHT22;1420;51.324;12.344;2023-08-08T11:31:26;19.90;99.90
2825;DHT22;1420;51.324;12.344;2023-08-08T11:33:54;20.10;99.30
2825;DHT22;1420;51.324;12.344;2023-08-08T11:36:21;20.30;99.30
2825;DHT22;1420;51.324;12.344;2023-08-08T11:38:50;20.40;95.40
2825;DHT22;1420;51.324;12.344;2023-08-08T11:41:17;20.30;95.40
2825;DHT22;1420;51.324;12.344;2023-08-08T11:43:44;20.90;94.90
2825;DHT22;1420;51.324;12.344;2023-08-08T11:46:12;21.00;94.00
2825;DHT22;1420;51.324;12.344;2023-08-08T11:48:39;21.40;92.50
2825;DHT22;1420;51.324;12.344;2023-08-08T11:51:06;21.50;91.20
2825;DHT22;1420;51.324;12.344;2023-08-08T11:53:34;21.70;87.80
2825;DHT22;1420;51.324;12.344;2023-08-08T11:56:01;21.40;87.20
2825;DHT22;1420;51.324;12.344;2023-08-08T11:58:29;20.60;83.50
2825;DHT22;1420;51.324;12.344;2023-08-08T12:00:56;20.50;82.70
2825;DHT22;1420;51.324;12.344;2023-08-08T12:03:25;20.50;82.70
2825;DHT22;1420;51.324;12.344;2023-08-08T12:05:52;20.40;79.40
2825;DHT22;1420;51.324;12.344;2023-08-08T12:08:19;20.30;83.10
2825;DHT22;1420;51.324;12.344;2023-08-08T12:10:48;20.10;82.70
2825;DHT22;1420;51.324;12.344;2023-08-08T12:13:15;20.00;88.40
2825;DHT22;1420;51.324;12.344;2023-08-08T12:15:42;19.90;88.10
2825;DHT22;1420;51.324;12.344;2023-08-08T12:18:10;19.60;88.00
2825;DHT22;1420;51.324;12.344;2023-08-08T12:20:38;19.50;87.90
2825;DHT22;1420;51.324;12.344;2023-08-08T12:23:05;20.10;86.10
2825;DHT22;1420;51.324;12.344;2023-08-08T12:25:32;20.30;85.30
2825;DHT22;1420;51.324;12.344;2023-08-08T12:28:01;20.30;84.70
2825;DHT22;1420;51.324;12.344;2023-08-08T12:30:28;20.10;83.40
2825;DHT22;1420;51.324;12.344;2023-08-08T12:32:55;20.10;83.30
2825;DHT22;1420;51.324;12.344;2023-08-08T12:35:23;20.80;81.50
2825;DHT22;1420;51.324;12.344;2023-08-08T12:37:52;21.10;81.00
2825;DHT22;1420;51.324;12.344;2023-08-08T12:40:19;21.10;81.10
2825;DHT22;1420;51.324;12.344;2023-08-08T12:42:46;20.90;78.90
2825;DHT22;1420;51.324;12.344;2023-08-08T12:45:14;20.40;78.40
2825;DHT22;1420;51.324;12.344;2023-08-08T12:47:41;20.50;78.60
2825;DHT22;1420;51.324;12.344;2023-08-08T12:50:09;20.50;76.40
2825;DHT22;1420;51.324;12.344;2023-08-08T12:52:36;20.50;74.10
2825;DHT22;1420;51.324;12.344;2023-08-08T12:55:04;20.90;73.30
2825;DHT22;1420;51.324;12.344;2023-08-08T12:57:32;21.40;71.20
2825;DHT22;1420;51.324;12.344;2023-08-08T13:00:00;21.00;67.10
2825;DHT22;1420;51.324;12.344;2023-08-08T13:02:28;20.90;67.40
2825;DHT22;1420;51.324;12.344;2023-08-08T13:04:55;20.90;67.00
2825;DHT22;1420;51.324;12.344;2023-08-08T13:07:22;20.80;66.70
2825;DHT22;1420;51.324;12.344;2023-08-08T13:09:50;20.90;70.70
2825;DHT22;1420;51.324;12.344;2023-08-08T13:12:27;20.60;68.20
2825;DHT22;1420;51.324;12.344;2023-08-08T13:15:07;20.50;70.30
2825;DHT22;1420;51.324;12.344;2023-08-08T13:17:38;20.40;70.20
2825;DHT22;1420;51.324;12.344;2023-08-08T13:20:06;20.60;76.10
2825;DHT22;1420;51.324;12.344;2023-08-08T13:22:33;20.70;71.40
2825;DHT22;1420;51.324;12.344;2023-08-08T13:25:00;20.70;71.30
2825;DHT22;1420;51.324;12.344;2023-08-08T13:27:29;20.50;72.00
2825;DHT22;1420;51.324;12.344;2023-08-08T13:29:56;20.40;72.60
2825;DHT22;1420;51.324;12.344;2023-08-08T13:32:23;20.30;74.10
2825;DHT22;1420;51.324;12.344;2023-08-08T13:34:51;20.10;71.50
2825;DHT22;1420;51.324;12.344;2023-08-08T13:37:18;20.00;72.20
2825;DHT22;1420;51.324;12.344;2023-08-08T13:39:45;19.90;73.60
2825;DHT22;1420;51.324;12.344;2023-08-08T13:42:14;19.80;76.10
2825;DHT22;1420;51.324;12.344;2023-08-08T13:44:41;19.90;75.40
2825;DHT22;1420;51.324;12.344;2023-08-08T13:47:09;20.00;73.20
2825;DHT22;1420;51.324;12.344;2023-08-08T13:49:36;20.30;72.90
2825;DHT22;1420;51.324;12.344;2023-08-08T13:52:04;20.60;69.00
2825;DHT22;1420;51.324;12.344;2023-08-08T13:54:32;20.60;66.20
2825;DHT22;1420;51.324;12.344;2023-08-08T13:56:59;20.50;63.90
2825;DHT22;1420;51.324;12.344;2023-08-08T13:59:26;20.50;63.00
2825;DHT22;1420;51.324;12.344;2023-08-08T14:01:54;20.50;64.70
2825;DHT22;1420;51.324;12.344;2023-08-08T14:04:21;20.50;65.40
2825;DHT22;1420;51.324;12.344;2023-08-08T14:06:48;20.40;62.90
2825;DHT22;1420;51.324;12.344;2023-08-08T14:09:16;20.20;65.30
2825;DHT22;1420;51.324;12.344;2023-08-08T14:11:43;20.20;62.90
2825;DHT22;1420;51.324;12.344;2023-08-08T14:14:11;20.30;64.90
2825;DHT22;1420;51.324;12.344;2023-08-08T14:16:38;20.30;68.00
2825;DHT22;1420;51.324;12.344;2023-08-08T14:19:05;20.20;63.80
2825;DHT22;1420;51.324;12.344;2023-08-08T14:21:32;20.30;61.70
2825;DHT22;1420;51.324;12.344;2023-08-08T14:23:59;20.30;60.70
2825;DHT22;1420;51.324;12.344;2023-08-08T14:26:27;19.80;64.30
2825;DHT22;1420;51.324;12.344;2023-08-08T14:28:54;19.40;70.30
2825;DHT22;1420;51.324;12.344;2023-08-08T14:31:21;19.20;71.80
2825;DHT22;1420;51.324;12.344;2023-08-08T14:33:49;19.00;71.30
2825;DHT22;1420;51.324;12.344;2023-08-08T14:36:16;19.20;73.70
2825;DHT22;1420;51.324;12.344;2023-08-08T14:38:43;19.00;76.70
2825;DHT22;1420;51.324;12.344;2023-08-08T14:41:11;18.80;75.10
2825;DHT22;1420;51.324;12.344;2023-08-08T14:43:38;19.00;75.30
2825;DHT22;1420;51.324;12.344;2023-08-08T14:46:05;19.00;75.90
2825;DHT22;1420;51.324;12.344;2023-08-08T14:48:33;18.80;74.40
2825;DHT22;1420;51.324;12.344;2023-08-08T14:51:01;18.80;74.30
2825;DHT22;1420;51.324;12.344;2023-08-08T14:53:29;18.90;77.10
2825;DHT22;1420;51.324;12.344;2023-08-08T14:55:58;18.90;77.80
2825;DHT22;1420;51.324;12.344;2023-08-08T14:58:25;18.90;76.10
2825;DHT22;1420;51.324;12.344;2023-08-08T15:00:58;18.80;78.90
2825;DHT22;1420;51.324;12.344;2023-08-08T15:03:29;18.80;78.50
2825;DHT22;1420;51.324;12.344;2023-08-08T15:05:58;18.70;79.40
2825;DHT22;1420;51.324;12.344;2023-08-08T15:08:25;18.70;79.70
2825;DHT22;1420;51.324;12.344;2023-08-08T15:10:53;18.60;79.00
2825;DHT22;1420;51.324;12.344;2023-08-08T15:13:20;18.50;80.90
2825;DHT22;1420;51.324;12.344;2023-08-08T15:15:47;18.40;80.50
2825;DHT22;1420;51.324;12.344;2023-08-08T15:18:14;18.40;80.40
2825;DHT22;1420;51.324;12.344;2023-08-08T15:20:42;18.40;80.00
2825;DHT22;1420;51.324;12.344;2023-08-08T15:23:09;18.30;80.20
2825;DHT22;1420;51.324;12.344;2023-08-08T15:25:37;18.40;80.90
2825;DHT22;1420;51.324;12.344;2023-08-08T15:28:05;18.30;80.60
2825;DHT22;1420;51.324;12.344;2023-08-08T15:30:32;18.30;83.10
2825;DHT22;1420;51.324;12.344;2023-08-08T15:32:59;18.50;83.50
2825;DHT22;1420;51.324;12.344;2023-08-08T15:35:26;18.40;83.90
2825;DHT22;1420;51.324;12.344;2023-08-08T15:37:54;18.30;82.80
2825;DHT22;1420;51.324;12.344;2023-08-08T15:40:21;18.50;83.60
2825;DHT22;1420;51.324;12.344;2023-08-08T15:42:48;18.50;83.50
2825;DHT22;1420;51.324;12.344;2023-08-08T15:45:15;18.60;84.40
2825;DHT22;1420;51.324;12.344;2023-08-08T15:47:43;18.50;86.10